Time;durP1;ratioP1;P1;durP2;ratioP2;P2;SDS_P1;SDS_P2;PMS_P1;PMS_P2;Temp;Humidity;BMP_temperature;BMP_pressure;BME280_temperature;BME280_humidity;BME280_pressure;Samples;Min_cycle;Max_cycle;Signal;HPM_P1;HPM_P2
2023/06/03 00:01:11;;;;;;;4.57;2.70;;;17.80;62.00;;;;;;4983258;28;20463;-81
2023/06/03 00:03:56;;;;;;;2.97;2.43;;;17.80;62.30;;;;;;4978791;28;20964;-82
2023/06/03 00:06:52;;;;;;;5.93;2.47;;;17.80;62.70;;;;;;4999354;28;20549;-82
2023/06/03 00:09:36;;;;;;;2.77;2.33;;;17.70;62.40;;;;;;4975689;28;20459;-81
2023/06/03 00:12:11;;;;;;;3.93;2.10;;;17.70;62.40;;;;;;4953515;28;20462;-81
2023/06/03 00:14:55;;;;;;;3.43;1.80;;;17.70;62.90;;;;;;4968846;28;20537;-82
2023/06/03 00:17:33;;;;;;;3.27;2.43;;;17.80;63.30;;;;;;5012910;22;20535;-82
2023/06/03 00:23:14;;;;;;;5.33;2.13;;;17.50;63.50;;;;;;5002522;28;20456;-81
2023/06/03 00:25:58;;;;;;;6.10;2.60;;;17.60;64.10;;;;;;5003786;28;20465;-81
2023/06/03 00:29:00;;;;;;;3.30;2.00;;;17.60;63.80;;;;;;4995769;28;20497;-82
2023/06/03 00:31:44;;;;;;;3.80;1.90;;;17.60;64.00;;;;;;4988592;28;20791;-82
2023/06/03 00:34:24;;;;;;;3.83;3.53;;;17.60;63.90;;;;;;4995641;28;20603;-84
2023/06/03 00:36:51;;;;;;;4.20;2.43;;;17.70;63.60;;;;;;4994121;28;20511;-82
2023/06/03 00:39:37;;;;;;;4.77;2.20;;;17.50;63.80;;;;;;4967675;28;20533;-82
2023/06/03 00:42:14;;;;;;;3.77;2.20;;;17.50;64.40;;;;;;4987618;28;21306;-82
2023/06/03 00:44:45;;;;;;;3.83;2.47;;;17.40;64.90;;;;;;4992960;28;20481;-82
2023/06/03 00:47:38;;;;;;;7.00;2.17;;;17.60;64.50;;;;;;4990444;28;20589;-82
2023/06/03 00:50:16;;;;;;;3.00;2.17;;;17.40;64.50;;;;;;4992542;28;20466;-83
2023/06/03 00:52:57;;;;;;;4.33;2.30;;;17.40;65.10;;;;;;4990978;28;20482;-82
2023/06/03 00:55:49;;;;;;;2.37;2.13;;;17.30;66.10;;;;;;4992590;28;20450;-81
2023/06/03 00:58:23;;;;;;;3.33;2.27;;;17.30;65.50;;;;;;4999988;28;20470;-83
2023/06/03 01:01:06;;;;;;;2.30;2.10;;;17.40;65.50;;;;;;4996713;28;20457;-82
2023/06/03 01:03:53;;;;;;;3.20;2.00;;;17.30;65.30;;;;;;4997799;28;20546;-83
2023/06/03 01:06:45;;;;;;;2.70;2.50;;;17.30;65.70;;;;;;4997144;28;20465;-82
2023/06/03 01:09:55;;;;;;;2.70;2.47;;;17.30;66.10;;;;;;4988847;28;20843;-83
2023/06/03 01:12:56;;;;;;;5.43;3.00;;;17.20;66.40;;;;;;5000093;28;20704;-83
2023/06/03 01:15:33;;;;;;;2.97;2.17;;;17.30;67.40;;;;;;5003725;28;20457;-82
2023/06/03 01:18:26;;;;;;;2.93;2.67;;;17.70;67.40;;;;;;4994735;28;21934;-82
2023/06/03 01:21:17;;;;;;;3.13;2.10;;;17.50;66.80;;;;;;5012551;28;20458;-80
2023/06/03 01:23:59;;;;;;;4.00;2.67;;;17.40;68.00;;;;;;4998396;28;20508;-82
2023/06/03 01:26:34;;;;;;;2.63;2.20;;;17.30;68.80;;;;;;4995548;28;20446;-81
2023/06/03 01:29:15;;;;;;;2.80;2.47;;;17.30;69.60;;;;;;5004983;28;20466;-81
2023/06/03 01:31:58;;;;;;;2.93;2.10;;;17.40;70.30;;;;;;5014686;28;20466;-83
2023/06/03 01:34:46;;;;;;;3.53;2.60;;;17.30;70.50;;;;;;5000777;28;20481;-80
2023/06/03 01:37:19;;;;;;;2.40;2.13;;;17.30;70.70;;;;;;5008009;28;20560;-83
2023/06/03 01:39:51;;;;;;;2.80;2.13;;;17.40;70.60;;;;;;5008430;28;20462;-82
2023/06/03 01:42:23;;;;;;;4.07;2.47;;;17.40;70.60;;;;;;4995611;28;20539;-81
2023/06/03 01:45:12;;;;;;;3.33;2.43;;;17.40;70.30;;;;;;4963182;28;21001;-82
2023/06/03 01:47:47;;;;;;;4.03;2.63;;;17.20;70.80;;;;;;5005677;28;20544;-83
2023/06/03 01:50:30;;;;;;;3.50;2.40;;;17.20;71.30;;;;;;5007874;28;20449;-82
2023/06/03 01:53:06;;;;;;;3.30;2.20;;;17.10;71.60;;;;;;5021114;28;20467;-82
2023/06/03 01:55:46;;;;;;;7.13;2.73;;;17.10;71.70;;;;;;5024026;28;20478;-82
2023/06/03 01:58:13;;;;;;;3.13;2.40;;;17.10;72.30;;;;;;5026495;28;20484;-82
2023/06/03 02:00:56;;;;;;;2.47;2.10;;;17.10;72.60;;;;;;5023333;28;20464;-82
2023/06/03 02:03:30;;;;;;;3.70;2.30;;;17.00;72.20;;;;;;5009043;28;20508;-81
2023/06/03 02:06:36;;;;;;;3.93;2.07;;;17.10;72.00;;;;;;4989153;28;20498;-82
2023/06/03 02:09:20;;;;;;;2.47;2.27;;;17.00;72.20;;;;;;4986570;28;20462;-82
2023/06/03 02:12:07;;;;;;;2.03;1.93;;;17.00;72.70;;;;;;4986722;28;20820;-81
2023/06/03 02:15:04;;;;;;;2.27;2.07;;;16.90;72.70;;;;;;4997302;28;20465;-81
2023/06/03 02:17:40;;;;;;;3.33;2.20;;;16.90;71.90;;;;;;5004063;28;20486;-81
2023/06/03 02:20:24;;;;;;;2.20;1.73;;;17.00;71.50;;;;;;4981719;28;20462;-81
2023/06/03 02:23:05;;;;;;;3.20;2.03;;;16.90;71.10;;;;;;5000597;28;20537;-82
2023/06/03 02:25:53;;;;;;;2.83;1.80;;;16.80;70.50;;;;;;5004367;28;21075;-83
2023/06/03 02:28:29;;;;;;;2.80;2.03;;;16.70;70.70;;;;;;5002939;28;20489;-82
2023/06/03 02:31:01;;;;;;;3.47;2.27;;;16.70;70.10;;;;;;4991974;28;20460;-82
2023/06/03 02:33:38;;;;;;;2.50;2.30;;;16.70;69.60;;;;;;4991990;28;20485;-82
2023/06/03 02:36:11;;;;;;;3.23;2.13;;;16.60;69.80;;;;;;5009895;28;20476;-81
2023/06/03 02:38:47;;;;;;;3.00;2.10;;;16.60;70.20;;;;;;4994245;28;20487;-80
2023/06/03 02:41:21;;;;;;;2.33;2.13;;;16.60;70.10;;;;;;4991290;28;20462;-82
2023/06/03 02:43:51;;;;;;;2.00;1.83;;;16.60;69.60;;;;;;4993767;28;20462;-81
2023/06/03 02:46:38;;;;;;;2.10;1.87;;;16.50;69.90;;;;;;4990295;28;20456;-80
2023/06/03 02:49:23;;;;;;;2.30;2.10;;;16.60;70.60;;;;;;4995001;28;20520;-82
2023/06/03 02:51:58;;;;;;;2.60;2.40;;;16.50;70.60;;;;;;4987974;28;20458;-81
2023/06/03 02:54:36;;;;;;;3.43;2.47;;;16.60;70.10;;;;;;4992808;28;20459;-81
2023/06/03 02:57:26;;;;;;;2.80;1.97;;;16.60;69.60;;;;;;4982870;28;20489;-81
2023/06/03 03:00:20;;;;;;;3.10;2.00;;;16.50;69.30;;;;;;4995141;28;21298;-81
2023/06/03 03:02:56;;;;;;;4.83;1.93;;;16.40;69.80;;;;;;4996861;28;20508;-81
2023/06/03 03:05:25;;;;;;;2.00;1.90;;;16.40;69.80;;;;;;4998085;28;20461;-83
2023/06/03 03:08:17;;;;;;;2.30;2.10;;;16.40;69.10;;;;;;4995550;28;20505;-81
2023/06/03 03:11:06;;;;;;;3.27;2.07;;;16.30;69.30;;;;;;4998361;28;20912;-81
2023/06/03 03:14:07;;;;;;;4.70;2.30;;;16.20;69.00;;;;;;5010422;28;20473;-81
2023/06/03 03:16:57;;;;;;;2.70;2.50;;;16.30;69.20;;;;;;4991347;28;20518;-80
2023/06/03 03:20:03;;;;;;;2.83;1.90;;;16.10;69.30;;;;;;4995914;28;21058;-81
2023/06/03 03:23:00;;;;;;;2.37;2.17;;;16.10;69.10;;;;;;4997566;28;20474;-82
2023/06/03 03:25:40;;;;;;;;;;;;;;;;;;;;;
2023/06/03 03:28:17;;;;;;;1.80;1.70;;;16.20;68.20;;;;;;4996644;28;20488;-82
2023/06/03 03:31:34;;;;;;;2.63;2.00;;;16.30;68.00;;;;;;5008550;28;20418;-82
2023/06/03 03:34:19;;;;;;;1.93;1.73;;;16.10;68.00;;;;;;4994809;28;20996;-82
2023/06/03 03:36:48;;;;;;;2.73;2.00;;;16.20;68.10;;;;;;4991572;28;20489;-82
2023/06/03 03:39:31;;;;;;;4.10;2.67;;;16.10;67.90;;;;;;4969214;28;20552;-81
2023/06/03 03:42:07;;;;;;;5.70;1.57;;;16.20;67.00;;;;;;4984974;28;20466;-81
2023/06/03 03:44:56;;;;;;;2.47;1.50;;;16.10;66.40;;;;;;4995239;28;20537;-82
2023/06/03 03:47:44;;;;;;;1.67;1.57;;;16.20;65.70;;;;;;4993215;28;20586;-81
2023/06/03 03:50:46;;;;;;;2.70;1.90;;;16.20;65.70;;;;;;5000546;28;20493;-81
2023/06/03 03:53:32;;;;;;;3.00;1.60;;;16.20;65.40;;;;;;4999201;28;20463;-81
2023/06/03 03:56:33;;;;;;;2.67;1.83;;;16.20;65.60;;;;;;4998716;28;20458;-81
2023/06/03 03:59:10;;;;;;;5.30;1.90;;;16.10;65.70;;;;;;5002791;28;20462;-82
2023/06/03 04:01:53;;;;;;;3.37;1.80;;;16.20;65.20;;;;;;4995549;28;20525;-82
2023/06/03 04:05:04;;;;;;;2.10;1.30;;;16.20;63.50;;;;;;4992355;28;20506;-83
2023/06/03 04:07:40;;;;;;;2.13;1.80;;;16.10;63.60;;;;;;4983018;28;20478;-81
2023/06/03 04:10:27;;;;;;;2.50;1.80;;;16.10;63.10;;;;;;5002674;28;20447;-83
2023/06/03 04:12:56;;;;;;;4.77;2.40;;;16.00;63.00;;;;;;5006709;28;20462;-81
2023/06/03 04:16:00;;;;;;;6.33;3.03;;;16.00;62.80;;;;;;5004678;28;20538;-82
2023/06/03 04:18:41;;;;;;;2.40;2.17;;;15.90;62.90;;;;;;5006651;28;20673;-82
2023/06/03 04:21:22;;;;;;;3.93;1.50;;;15.80;62.70;;;;;;5009752;28;20486;-81
2023/06/03 04:24:06;;;;;;;2.43;1.53;;;15.90;61.90;;;;;;5007904;28;20474;-82
2023/06/03 04:26:57;;;;;;;2.30;2.03;;;16.00;62.00;;;;;;5004786;28;20441;-82
2023/06/03 04:29:46;;;;;;;2.03;1.47;;;16.00;61.60;;;;;;5007654;28;20455;-81
2023/06/03 04:32:23;;;;;;;2.23;1.83;;;16.10;61.30;;;;;;5005571;28;20534;-81
2023/06/03 04:35:01;;;;;;;2.33;1.40;;;16.20;60.10;;;;;;5003144;28;20465;-81
2023/06/03 04:37:40;;;;;;;5.63;1.90;;;16.10;59.70;;;;;;5001814;28;20497;-81
2023/06/03 04:40:19;;;;;;;1.80;1.47;;;16.30;59.50;;;;;;4993345;28;20458;-81
2023/06/03 04:43:34;;;;;;;3.50;1.70;;;16.20;59.70;;;;;;4996770;28;20438;-81
2023/06/03 04:46:45;;;;;;;3.83;1.50;;;16.40;59.00;;;;;;4993186;28;20450;-80
2023/06/03 04:49:35;;;;;;;2.30;1.80;;;16.30;59.30;;;;;;4954218;28;20452;-81
2023/06/03 04:52:31;;;;;;;2.03;1.53;;;16.30;59.00;;;;;;4995162;28;20466;-82
2023/06/03 04:55:27;;;;;;;1.60;1.50;;;16.40;59.10;;;;;;4989875;28;20491;-82
2023/06/03 04:58:13;;;;;;;4.30;1.40;;;16.30;58.90;;;;;;5009166;28;20586;-81
2023/06/03 05:00:57;;;;;;;1.77;1.20;;;16.40;58.40;;;;;;4994716;28;20478;-83
2023/06/03 05:03:47;;;;;;;1.77;1.27;;;16.50;57.30;;;;;;4993794;28;20552;-83
2023/06/03 05:06:23;;;;;;;3.00;1.20;;;16.40;56.90;;;;;;4995236;28;20467;-82
2023/06/03 05:09:10;;;;;;;1.30;1.20;;;16.30;56.00;;;;;;4996131;28;20494;-83
2023/06/03 05:11:51;;;;;;;1.40;1.30;;;16.30;56.30;;;;;;4994051;28;20458;-82
2023/06/03 05:14:32;;;;;;;1.53;1.07;;;16.40;55.90;;;;;;4992080;28;20458;-83
2023/06/03 05:17:06;;;;;;;1.13;0.97;;;16.50;55.50;;;;;;4995323;28;20494;-82
2023/06/03 05:19:42;;;;;;;2.70;1.30;;;16.40;55.20;;;;;;4993673;28;20451;-82
2023/06/03 05:22:37;;;;;;;1.53;1.30;;;16.40;55.30;;;;;;4994017;28;20533;-82
2023/06/03 05:25:18;;;;;;;1.03;1.03;;;16.50;54.20;;;;;;4995219;28;20474;-81
2023/06/03 05:27:58;;;;;;;1.10;1.00;;;16.40;54.60;;;;;;4993063;28;20491;-80
2023/06/03 05:30:48;;;;;;;1.97;1.30;;;16.80;53.60;;;;;;4987580;28;20470;-79
2023/06/03 05:33:51;;;;;;;2.97;1.43;;;16.70;52.40;;;;;;5006383;28;20458;-79
2023/06/03 05:36:26;;;;;;;0.93;0.93;;;16.60;52.20;;;;;;4997409;28;20499;-81
2023/06/03 05:39:04;;;;;;;1.40;1.23;;;16.60;52.60;;;;;;4990467;28;20541;-81
2023/06/03 05:41:41;;;;;;;1.20;1.03;;;16.70;52.50;;;;;;4994538;28;20480;-81
2023/06/03 05:44:16;;;;;;;3.90;1.20;;;16.80;52.10;;;;;;4995750;28;20463;-80
2023/06/03 05:47:08;;;;;;;;;;;;;;;;;;;;;
2023/06/03 05:49:41;;;;;;;1.10;1.00;;;16.70;51.50;;;;;;4998641;28;20455;-82
2023/06/03 05:52:14;;;;;;;1.23;1.03;;;16.80;51.80;;;;;;4995577;28;21242;-81
2023/06/03 05:54:49;;;;;;;1.00;0.90;;;16.80;51.30;;;;;;4995212;28;20471;-81
2023/06/03 05:57:23;;;;;;;1.57;1.00;;;16.90;51.80;;;;;;4990191;28;20556;-81
2023/06/03 06:00:02;;;;;;;1.30;1.20;;;17.00;51.50;;;;;;4994440;28;20496;-82
2023/06/03 06:02:40;;;;;;;1.43;0.90;;;16.90;51.30;;;;;;4995907;28;20458;-81
2023/06/03 06:05:18;;;;;;;2.53;1.10;;;16.90;51.90;;;;;;4993131;28;20458;-81
2023/06/03 06:08:36;;;;;;;;;;;;;;;;;;;;;
2023/06/03 06:11:35;;;;;;;2.43;1.10;;;17.20;51.00;;;;;;4993020;28;20481;-81
2023/06/03 06:14:19;;;;;;;1.47;1.20;;;17.10;50.60;;;;;;4992386;28;20501;-81
2023/06/03 06:16:55;;;;;;;1.33;0.90;;;17.20;50.70;;;;;;4993864;28;20548;-82
2023/06/03 06:19:54;;;;;;;1.53;1.10;;;17.20;50.80;;;;;;4990350;28;20521;-82
2023/06/03 06:22:38;;;;;;;1.77;1.07;;;17.20;51.10;;;;;;4993691;28;20454;-82
2023/06/03 06:28:48;;;;;;;1.00;0.90;;;17.30;50.80;;;;;;4992360;22;20497;-82
2023/06/03 06:31:20;;;;;;;1.37;1.00;;;17.40;50.80;;;;;;4952220;28;23104;-82
2023/06/03 06:34:05;;;;;;;2.00;1.00;;;17.40;50.10;;;;;;4986445;28;20549;-81
2023/06/03 06:37:26;;;;;;;2.07;0.90;;;17.60;48.90;;;;;;4988065;28;20459;-82
2023/06/03 06:41:03;;;;;;;;;;;;;;;;;;;;;
2023/06/03 06:44:00;;;;;;;3.13;1.00;;;17.60;49.50;;;;;;4986239;28;20453;-81
2023/06/03 06:47:40;;;;;;;0.93;0.90;;;17.60;49.40;;;;;;4997535;23;20512;-81
2023/06/03 06:54:38;;;;;;;;;;;;;;;;;;;;;
2023/06/03 06:57:35;;;;;;;1.47;0.93;;;17.90;49.20;;;;;;4988693;28;20517;-82
2023/06/03 07:00:27;;;;;;;1.63;1.00;;;18.00;49.40;;;;;;4987762;28;22702;-82
2023/06/03 07:11:40;;;;;;;;;;;;;;;;;;;;;
2023/06/03 07:19:44;;;;;;;1.27;1.17;;;18.70;47.70;;;;;;4846988;29;21189;-81
2023/06/03 07:23:50;;;;;;;1.40;0.93;;;18.50;47.90;;;;;;4824683;29;20480;-81
2023/06/03 07:27:24;;;;;;;2.17;1.23;;;18.70;48.60;;;;;;4793496;29;20947;-81
2023/06/03 07:30:37;;;;;;;2.53;1.27;;;18.80;48.80;;;;;;4754437;29;20465;-82
2023/06/03 07:42:13;;;;;;;;;;;;;;;;;;;;;
2023/06/03 07:49:18;;;;;;;1.17;1.07;;;19.70;47.80;;;;;;4906575;29;20568;-82
2023/06/03 07:52:30;;;;;;;1.70;1.20;;;19.80;47.30;;;;;;4978615;28;20464;-82
2023/06/03 07:56:04;;;;;;;3.30;1.20;;;20.00;47.10;;;;;;5006388;28;20484;-82
2023/06/03 07:59:21;;;;;;;2.50;1.20;;;20.10;47.50;;;;;;4941487;28;20493;-81
2023/06/03 08:02:39;;;;;;;2.13;1.13;;;20.20;47.10;;;;;;4947974;28;20463;-82
2023/06/03 08:05:37;;;;;;;1.50;1.27;;;20.20;46.60;;;;;;4986716;28;20473;-82
2023/06/03 08:08:30;;;;;;;1.47;1.10;;;20.20;46.70;;;;;;5086881;22;20571;-82
2023/06/03 08:15:00;;;;;;;1.40;1.27;;;20.30;46.50;;;;;;4993976;28;20425;-80
2023/06/03 08:21:36;;;;;;;1.50;1.20;;;20.80;46.70;;;;;;4907484;28;20636;-82
2023/06/03 08:25:04;;;;;;;1.23;1.13;;;21.50;45.60;;;;;;5011626;28;20518;-82
2023/06/03 08:27:51;;;;;;;2.10;1.20;;;21.40;46.10;;;;;;4983538;28;20545;-82
2023/06/03 08:30:30;;;;;;;1.93;1.20;;;21.50;46.20;;;;;;4993262;28;20499;-81
2023/06/03 08:33:29;;;;;;;1.60;1.37;;;22.30;44.80;;;;;;4999797;28;20554;-81
2023/06/03 08:36:31;;;;;;;1.13;1.03;;;22.40;43.80;;;;;;4980887;28;20597;-82
2023/06/03 08:39:23;;;;;;;2.10;1.30;;;22.50;43.00;;;;;;4996321;28;20489;-85
2023/06/03 08:42:05;;;;;;;1.20;1.10;;;22.70;43.30;;;;;;4994645;28;20466;-82
2023/06/03 08:45:29;;;;;;;1.53;1.43;;;22.80;43.10;;;;;;4996129;28;20473;-80
2023/06/03 08:49:07;;;;;;;2.40;1.40;;;23.10;42.70;;;;;;5000024;28;20543;-83
2023/06/03 08:52:07;;;;;;;;;;;;;;;;;;;;;
2023/06/03 08:54:47;;;;;;;1.97;1.10;;;23.70;42.30;;;;;;4959723;28;20468;-83
2023/06/03 09:05:01;;;;;;;1.80;1.30;;;24.90;40.20;;;;;;4895651;28;20519;-83
2023/06/03 09:08:11;;;;;;;1.67;1.50;;;25.20;39.90;;;;;;4926049;29;20495;-83
2023/06/03 09:11:22;;;;;;;2.50;1.30;;;25.90;39.30;;;;;;4925373;28;20468;-83
2023/06/03 09:14:15;;;;;;;2.87;1.20;;;26.60;38.50;;;;;;4995627;28;20590;-83
2023/06/03 09:21:47;;;;;;;2.50;1.53;;;27.40;35.50;;;;;;4925323;28;20570;-83
2023/06/03 09:24:41;;;;;;;1.53;1.43;;;26.90;35.60;;;;;;4957025;28;21984;-83
2023/06/03 09:27:55;;;;;;;1.90;1.30;;;26.70;35.50;;;;;;4983812;28;20578;-81
2023/06/03 09:31:30;;;;;;;1.70;1.30;;;27.20;35.30;;;;;;4953444;28;20497;-82
2023/06/03 09:41:25;;;;;;;;;;;;;;;;;;;;;
2023/06/03 09:44:22;;;;;;;2.10;1.60;;;28.60;33.10;;;;;;5025268;28;20445;-82
2023/06/03 09:47:44;;;;;;;;;;;;;;;;;;;;;
2023/06/03 09:50:53;;;;;;;1.60;1.47;;;29.40;32.20;;;;;;5021694;28;20806;-82
2023/06/03 09:53:51;;;;;;;1.53;1.43;;;29.60;31.80;;;;;;4960768;28;20532;-81
2023/06/03 09:56:38;;;;;;;1.60;1.50;;;28.90;31.30;;;;;;4975938;28;20451;-82
2023/06/03 09:59:39;;;;;;;1.70;1.60;;;28.70;32.00;;;;;;4973600;28;21198;-82
2023/06/03 10:02:39;;;;;;;3.77;1.70;;;28.90;31.80;;;;;;4930046;28;20454;-81
2023/06/03 10:05:41;;;;;;;1.77;1.27;;;29.40;31.20;;;;;;4961467;28;20435;-82
2023/06/03 10:08:42;;;;;;;1.63;1.53;;;29.60;30.80;;;;;;4967124;28;20480;-82
2023/06/03 10:15:53;;;;;;;1.50;1.40;;;29.20;30.90;;;;;;4971534;28;20432;-82
2023/06/03 10:18:56;;;;;;;1.33;1.23;;;29.40;31.20;;;;;;4950137;28;20491;-83
2023/06/03 10:22:01;;;;;;;2.03;1.60;;;30.00;29.90;;;;;;4949888;28;20532;-83
2023/06/03 10:24:51;;;;;;;3.60;1.80;;;30.10;29.70;;;;;;4906725;28;20469;-84
2023/06/03 10:27:26;;;;;;;2.07;1.70;;;29.90;29.80;;;;;;4919635;28;20488;-82
2023/06/03 10:30:06;;;;;;;1.73;1.47;;;30.20;29.80;;;;;;4938977;28;20469;-82
2023/06/03 10:32:50;;;;;;;1.70;1.60;;;29.80;30.00;;;;;;4925486;28;20456;-82
2023/06/03 10:35:21;;;;;;;2.13;1.73;;;30.10;29.90;;;;;;4942975;28;20866;-82
2023/06/03 10:37:51;;;;;;;2.43;1.43;;;30.50;29.60;;;;;;4956787;28;20528;-82
2023/06/03 10:40:28;;;;;;;1.13;1.10;;;31.00;28.80;;;;;;4943594;28;20456;-82
2023/06/03 10:43:27;;;;;;;3.80;1.70;;;30.70;28.90;;;;;;4996517;28;20438;-82
2023/06/03 10:46:24;;;;;;;1.33;1.23;;;30.40;29.60;;;;;;5024302;28;20811;-84
2023/06/03 10:49:14;;;;;;;2.83;1.70;;;30.40;29.30;;;;;;5020541;28;20454;-81
2023/06/03 10:52:15;;;;;;;3.07;1.37;;;30.20;29.00;;;;;;5023673;28;20480;-82
2023/06/03 10:55:17;;;;;;;1.63;1.50;;;29.70;29.30;;;;;;5027832;28;20482;-82
2023/06/03 10:57:52;;;;;;;2.20;1.20;;;29.20;29.70;;;;;;5021395;22;20486;-84
2023/06/03 11:00:56;;;;;;;1.30;1.20;;;29.20;30.20;;;;;;5004525;28;20485;-82
2023/06/03 11:03:27;;;;;;;2.90;1.70;;;29.50;29.60;;;;;;5003570;28;20461;-83
2023/06/03 11:06:28;;;;;;;1.63;1.50;;;29.80;29.10;;;;;;5011551;28;20526;-83
2023/06/03 11:09:05;;;;;;;2.03;1.50;;;29.20;29.70;;;;;;4951385;28;20495;-82
2023/06/03 11:11:41;;;;;;;1.93;1.40;;;28.80;29.90;;;;;;4999363;28;20454;-81
2023/06/03 11:14:09;;;;;;;2.60;1.40;;;28.80;30.20;;;;;;4997561;28;20462;-81
2023/06/03 11:16:58;;;;;;;1.43;1.33;;;28.50;30.60;;;;;;4980074;28;20560;-82
2023/06/03 11:19:44;;;;;;;1.30;1.20;;;28.20;31.20;;;;;;4985590;28;20563;-82
2023/06/03 11:22:31;;;;;;;1.30;1.20;;;28.20;31.00;;;;;;4982515;28;20518;-82
2023/06/03 11:24:59;;;;;;;1.30;1.20;;;28.20;31.20;;;;;;4997196;28;20462;-81
2023/06/03 11:27:28;;;;;;;2.27;1.60;;;29.00;30.80;;;;;;5006533;28;20493;-80
2023/06/03 11:29:58;;;;;;;2.27;1.43;;;29.10;30.50;;;;;;5004797;28;20559;-82
2023/06/03 11:32:35;;;;;;;1.53;1.43;;;28.90;30.30;;;;;;4987083;28;20514;-82
2023/06/03 11:35:05;;;;;;;2.00;1.70;;;28.80;30.20;;;;;;4986530;28;20480;-82
2023/06/03 11:37:41;;;;;;;1.50;1.40;;;29.30;29.90;;;;;;4981852;28;20467;-82
2023/06/03 11:40:16;;;;;;;1.50;1.40;;;29.50;29.80;;;;;;4974729;28;20493;-83
2023/06/03 11:42:47;;;;;;;2.27;1.73;;;28.80;30.20;;;;;;4981328;28;20525;-82
2023/06/03 11:45:17;;;;;;;1.90;1.57;;;28.70;30.60;;;;;;4993653;28;20487;-82
2023/06/03 11:47:57;;;;;;;1.70;1.60;;;28.50;31.30;;;;;;4991946;28;20542;-82
2023/06/03 11:50:46;;;;;;;1.40;1.30;;;29.00;31.10;;;;;;4977637;28;21013;-82
2023/06/03 11:53:37;;;;;;;1.97;1.60;;;29.30;30.90;;;;;;4994125;28;21650;-83
2023/06/03 11:56:12;;;;;;;2.97;1.77;;;29.90;29.80;;;;;;4979193;28;20451;-84
2023/06/03 11:58:51;;;;;;;1.67;1.30;;;30.30;29.50;;;;;;4976666;28;22051;-83
2023/06/03 12:01:19;;;;;;;1.90;1.33;;;30.30;29.30;;;;;;4985327;28;20458;-82
2023/06/03 12:03:59;;;;;;;1.70;1.50;;;30.70;28.80;;;;;;4983082;28;20456;-81
2023/06/03 12:06:36;;;;;;;2.70;1.30;;;30.50;29.10;;;;;;4973286;28;20466;-81
2023/06/03 12:09:03;;;;;;;1.17;1.07;;;30.50;29.20;;;;;;4977093;28;20593;-83
2023/06/03 12:11:34;;;;;;;2.90;1.63;;;30.00;29.10;;;;;;4972403;28;20464;-84
2023/06/03 12:14:01;;;;;;;2.03;1.83;;;30.00;30.00;;;;;;4981116;28;20458;-83
2023/06/03 12:16:31;;;;;;;2.60;1.57;;;30.80;29.60;;;;;;4990414;28;20443;-82
2023/06/03 12:19:00;;;;;;;3.13;1.77;;;29.90;29.80;;;;;;4988780;28;20479;-82
2023/06/03 12:21:27;;;;;;;1.40;1.20;;;30.10;29.50;;;;;;4998618;28;20460;-82
2023/06/03 12:23:54;;;;;;;1.77;1.40;;;29.50;29.60;;;;;;4979857;28;20515;-83
2023/06/03 12:26:21;;;;;;;1.40;1.30;;;29.10;30.20;;;;;;4982106;28;20495;-82
2023/06/03 12:28:48;;;;;;;2.00;1.60;;;29.10;30.60;;;;;;4979880;28;20475;-82
2023/06/03 12:31:16;;;;;;;1.43;1.33;;;28.70;30.30;;;;;;4976051;28;20498;-82
2023/06/03 12:33:44;;;;;;;1.60;1.23;;;29.20;30.50;;;;;;4975267;28;20490;-82
2023/06/03 12:36:13;;;;;;;1.37;1.27;;;29.20;30.00;;;;;;4965351;28;20518;-81
2023/06/03 12:38:59;;;;;;;2.00;1.53;;;29.80;29.30;;;;;;4964401;28;20499;-81
2023/06/03 12:41:29;;;;;;;2.30;1.60;;;29.60;29.70;;;;;;4983524;28;20492;-81
2023/06/03 12:44:01;;;;;;;1.43;1.33;;;29.50;29.80;;;;;;4972741;28;20462;-82
2023/06/03 12:46:31;;;;;;;1.73;1.63;;;29.40;29.70;;;;;;4988742;28;20455;-81
2023/06/03 12:49:15;;;;;;;3.33;1.57;;;29.10;29.50;;;;;;4972231;28;20491;-82
2023/06/03 12:51:42;;;;;;;1.67;1.57;;;29.00;30.00;;;;;;4968064;28;20463;-80
2023/06/03 12:54:09;;;;;;;1.33;1.23;;;29.80;29.70;;;;;;4970254;28;20470;-81
2023/06/03 12:56:36;;;;;;;1.73;1.30;;;29.80;29.20;;;;;;4988656;28;20465;-81
2023/06/03 12:59:03;;;;;;;1.23;1.13;;;29.70;29.50;;;;;;4973416;28;20710;-84
2023/06/03 13:01:30;;;;;;;1.63;1.20;;;30.30;29.10;;;;;;4994585;28;20517;-83
2023/06/03 13:03:58;;;;;;;1.30;1.20;;;30.50;28.50;;;;;;4982146;28;20465;-83
2023/06/03 13:06:25;;;;;;;1.70;1.60;;;29.80;29.10;;;;;;4977704;28;21253;-83
2023/06/03 13:08:52;;;;;;;1.60;1.43;;;29.50;29.40;;;;;;4977588;28;20488;-84
2023/06/03 13:11:20;;;;;;;4.40;1.50;;;29.40;29.30;;;;;;4988569;28;20463;-83
2023/06/03 13:13:47;;;;;;;1.40;1.30;;;29.30;28.70;;;;;;4973556;28;20460;-83
2023/06/03 13:16:13;;;;;;;2.40;1.70;;;28.60;28.60;;;;;;4974382;28;20530;-81
2023/06/03 13:18:41;;;;;;;1.67;1.37;;;28.20;29.60;;;;;;4986548;28;20466;-86
2023/06/03 13:24:19;;;;;;;1.77;1.60;;;28.70;30.30;;;;;;4980101;28;20511;-85
2023/06/03 13:26:53;;;;;;;2.77;1.77;;;28.60;29.20;;;;;;4986778;28;21335;-83
2023/06/03 13:29:34;;;;;;;3.70;1.50;;;28.50;29.30;;;;;;4987679;28;20463;-83
2023/06/03 13:32:07;;;;;;;2.30;1.73;;;28.10;30.00;;;;;;4995799;28;20475;-84
2023/06/03 13:34:43;;;;;;;1.40;1.27;;;28.10;30.00;;;;;;4987095;28;20463;-84
2023/06/03 13:37:16;;;;;;;1.53;1.43;;;28.20;30.00;;;;;;4983470;28;20501;-81
2023/06/03 13:39:54;;;;;;;2.07;1.57;;;28.70;29.10;;;;;;4984498;28;20481;-83
2023/06/03 13:42:23;;;;;;;2.37;1.50;;;28.30;29.20;;;;;;4999117;28;20461;-82
2023/06/03 13:44:52;;;;;;;1.63;1.50;;;28.10;29.70;;;;;;4981531;28;20497;-84
2023/06/03 13:47:28;;;;;;;2.10;1.90;;;27.80;29.60;;;;;;4982184;28;20486;-83
2023/06/03 13:50:11;;;;;;;1.83;1.53;;;27.50;30.30;;;;;;4993191;28;20466;-82
2023/06/03 13:52:42;;;;;;;1.63;1.40;;;27.70;31.50;;;;;;4984625;28;21420;-84
2023/06/03 13:55:15;;;;;;;2.27;1.57;;;27.90;30.90;;;;;;4998008;28;20463;-83
2023/06/03 13:57:44;;;;;;;1.73;1.53;;;28.00;31.30;;;;;;4994839;28;20489;-83
2023/06/03 14:00:15;;;;;;;1.30;1.20;;;28.00;32.00;;;;;;4994257;28;20487;-83
2023/06/03 14:02:44;;;;;;;2.07;1.20;;;28.30;32.90;;;;;;4992763;28;20459;-83
2023/06/03 14:05:31;;;;;;;3.03;1.43;;;28.30;32.20;;;;;;4981013;28;20471;-83
2023/06/03 14:08:19;;;;;;;2.20;1.30;;;28.20;32.20;;;;;;4980666;28;20556;-84
2023/06/03 14:10:50;;;;;;;1.37;1.10;;;27.90;33.20;;;;;;4994935;28;20533;-83
2023/06/03 14:13:20;;;;;;;1.40;1.30;;;27.80;33.80;;;;;;4987038;28;20447;-83
2023/06/03 14:16:04;;;;;;;1.73;1.50;;;27.60;33.80;;;;;;5003891;28;20466;-83
2023/06/03 14:18:32;;;;;;;3.43;1.30;;;27.60;33.90;;;;;;4999731;28;20478;-84
2023/06/03 14:21:12;;;;;;;;;;;;;;;;;;;;;
2023/06/03 14:27:22;;;;;;;1.60;1.00;;;27.60;34.40;;;;;;4990860;28;20485;-82
2023/06/03 14:34:20;;;;;;;1.63;1.30;;;27.40;34.20;;;;;;4851884;29;20430;-82
2023/06/03 14:37:45;;;;;;;4.40;1.77;;;27.00;34.50;;;;;;4869937;29;20498;-81
2023/06/03 14:40:13;;;;;;;1.40;1.30;;;27.40;34.50;;;;;;4942721;29;20495;-82
2023/06/03 14:42:51;;;;;;;1.50;1.40;;;27.50;34.30;;;;;;4931239;29;20486;-82
2023/06/03 14:45:32;;;;;;;3.10;1.30;;;27.20;34.30;;;;;;4943169;29;20482;-83
2023/06/03 14:51:02;;;;;;;1.30;1.20;;;27.30;34.40;;;;;;4942944;29;20538;-84
2023/06/03 14:53:35;;;;;;;2.13;1.03;;;27.40;33.80;;;;;;4938183;29;20455;-82
2023/06/03 14:56:07;;;;;;;3.20;1.80;;;27.20;33.90;;;;;;4920471;29;20553;-84
2023/06/03 14:58:45;;;;;;;1.47;1.37;;;26.90;34.60;;;;;;4928386;29;20545;-84
2023/06/03 15:01:36;;;;;;;1.30;1.20;;;26.80;34.70;;;;;;4920142;29;20462;-83
2023/06/03 15:04:18;;;;;;;1.83;1.37;;;26.90;33.90;;;;;;4928871;29;20459;-84
2023/06/03 15:06:49;;;;;;;2.20;1.10;;;26.80;34.30;;;;;;4926035;29;20546;-84
2023/06/03 15:09:17;;;;;;;2.23;1.10;;;26.60;34.20;;;;;;4916101;29;20474;-83
2023/06/03 15:11:48;;;;;;;2.70;1.57;;;26.60;33.60;;;;;;4997961;28;20474;-83
2023/06/03 15:14:26;;;;;;;1.10;1.00;;;26.60;34.20;;;;;;4993958;28;20487;-82
2023/06/03 15:16:57;;;;;;;9.50;1.93;;;26.70;33.40;;;;;;4991404;28;20459;-83
2023/06/03 15:19:29;;;;;;;1.50;1.40;;;26.60;33.70;;;;;;4994540;28;20486;-82
2023/06/03 15:22:07;;;;;;;1.90;1.10;;;26.80;34.30;;;;;;4997785;28;20563;-84
2023/06/03 15:24:41;;;;;;;7.00;1.20;;;26.80;33.80;;;;;;5014117;28;20970;-83
2023/06/03 15:27:33;;;;;;;1.53;1.00;;;26.60;34.00;;;;;;4997047;28;20476;-83
2023/06/03 15:30:11;;;;;;;1.13;1.03;;;26.50;35.30;;;;;;4995989;28;20517;-83
2023/06/03 15:32:52;;;;;;;2.00;1.27;;;26.40;34.40;;;;;;4992753;28;20456;-85
2023/06/03 15:35:28;;;;;;;1.53;1.40;;;26.50;34.40;;;;;;4998741;28;20450;-81
2023/06/03 15:38:21;;;;;;;1.20;1.10;;;26.50;35.20;;;;;;5003620;28;20472;-84
2023/06/03 15:41:07;;;;;;;1.37;1.07;;;26.60;34.00;;;;;;4999890;28;20552;-84
2023/06/03 15:43:38;;;;;;;2.43;1.33;;;26.40;34.20;;;;;;4997723;28;20464;-83
2023/06/03 15:46:24;;;;;;;2.80;1.60;;;26.40;34.00;;;;;;4994816;28;20517;-84
2023/06/03 15:49:04;;;;;;;0.93;0.90;;;26.40;33.60;;;;;;5008253;28;20487;-85
2023/06/03 15:51:36;;;;;;;1.87;1.03;;;26.30;33.90;;;;;;4986798;28;20514;-85
2023/06/03 15:54:08;;;;;;;1.10;1.00;;;26.20;34.10;;;;;;4991077;28;20533;-85